createdAt,value
2018-09-05T00:00:31.310Z,97870.24
2018-09-05T00:01:02.886Z,97875.80
2018-09-05T00:01:34.516Z,97874.52
2018-09-05T00:02:06.123Z,97874.94
2018-09-05T00:02:37.771Z,97876.69
2018-09-05T00:03:09.377Z,97876.67
2018-09-05T00:03:40.968Z,97876.30
2018-09-05T00:04:12.574Z,97877.59
2018-09-05T00:04:44.172Z,97872.91
2018-09-05T00:05:15.776Z,97875.88
2018-09-05T00:05:47.368Z,97878.04
2018-09-05T00:06:18.974Z,97879.38
2018-09-05T00:06:50.568Z,97877.19
2018-09-05T00:07:22.200Z,97875.48
2018-09-05T00:07:53.802Z,97877.61
2018-09-05T00:08:25.475Z,97886.64
2018-09-05T00:08:57.060Z,97882.33
2018-09-05T00:09:28.651Z,97878.97
2018-09-05T00:10:00.239Z,97880.25
2018-09-05T00:10:31.845Z,97878.97
2018-09-05T00:11:03.441Z,97875.11
2018-09-05T00:11:35.094Z,97878.97
2018-09-05T00:12:06.670Z,97882.81
2018-09-05T00:12:38.253Z,97881.13
2018-09-05T00:13:09.840Z,97879.00
2018-09-05T00:13:41.437Z,97881.57
2018-09-05T00:14:13.033Z,97880.29
2018-09-05T00:14:44.638Z,97874.35
2018-09-05T00:15:16.232Z,97878.20
2018-09-05T00:15:47.821Z,97880.75
2018-09-05T00:16:19.427Z,97873.52
2018-09-05T00:16:51.056Z,97878.62
2018-09-05T00:17:22.644Z,97873.59
2018-09-05T00:17:54.264Z,97879.95
2018-09-05T00:18:25.856Z,97882.55
2018-09-05T00:18:57.445Z,97885.53
2018-09-05T00:19:29.050Z,97886.41
2018-09-05T00:20:00.655Z,97879.14
2018-09-05T00:20:32.258Z,97888.11
2018-09-05T00:21:03.854Z,97890.25
2018-09-05T00:21:35.444Z,97879.13
2018-09-05T00:22:07.046Z,97883.78
2018-09-05T00:22:38.646Z,97885.48
2018-09-05T00:23:10.250Z,97879.09
2018-09-05T00:23:41.845Z,97883.34
2018-09-05T00:24:13.454Z,97882.48
2018-09-05T00:24:45.052Z,97876.16
2018-09-05T00:25:16.645Z,97877.85
2018-09-05T00:25:48.236Z,97877.87
2018-09-05T00:26:19.827Z,97885.46
2018-09-05T00:26:51.442Z,97884.13
2018-09-05T00:27:23.076Z,97876.40
2018-09-05T00:27:54.667Z,97882.72
2018-09-05T00:28:26.259Z,97882.23
2018-09-05T00:28:57.853Z,97879.64
2018-09-05T00:29:29.444Z,97876.59
2018-09-05T00:30:01.037Z,97879.58
2018-09-05T00:30:32.614Z,97878.70
2018-09-05T00:31:04.213Z,97879.08
2018-09-05T00:31:35.791Z,97878.62
2018-09-05T00:32:07.450Z,97875.22
2018-09-05T00:32:39.031Z,97880.77
2018-09-05T00:33:10.620Z,97881.19
2018-09-05T00:33:42.208Z,97876.48
2018-09-05T00:34:13.814Z,97882.06
2018-09-05T00:34:45.407Z,97881.61
2018-09-05T00:35:16.987Z,97881.19
2018-09-05T00:35:48.579Z,97876.06
2018-09-05T00:36:20.163Z,97880.34
2018-09-05T00:36:51.774Z,97882.48
2018-09-05T00:37:23.403Z,97875.70
2018-09-05T00:37:54.995Z,97877.00
2018-09-05T00:38:26.584Z,97887.23
2018-09-05T00:38:58.171Z,97883.34
2018-09-05T00:39:29.774Z,97878.62
2018-09-05T00:40:01.355Z,97879.92
2018-09-05T00:40:32.948Z,97883.77
2018-09-05T00:41:04.537Z,97877.41
2018-09-05T00:41:36.124Z,97880.78
2018-09-05T00:42:07.702Z,97878.64
2018-09-05T00:42:39.346Z,97880.34
2018-09-05T00:43:10.936Z,97882.05
2018-09-05T00:43:42.524Z,97880.36
2018-09-05T00:44:14.098Z,97879.08
2018-09-05T00:44:45.766Z,97883.83
2018-09-05T00:45:17.350Z,97878.28
2018-09-05T00:45:48.967Z,97879.98
2018-09-05T00:46:21.105Z,97876.14
2018-09-05T00:46:52.682Z,97876.98
2018-09-05T00:47:24.268Z,97877.03
2018-09-05T00:47:55.874Z,97881.27
2018-09-05T00:48:27.464Z,97880.42
2018-09-05T00:48:59.053Z,97879.14
2018-09-05T00:49:30.716Z,97879.56
2018-09-05T00:50:02.307Z,97885.13
2018-09-05T00:50:33.899Z,97879.58
2018-09-05T00:51:05.488Z,97875.30
2018-09-05T00:51:37.089Z,97882.55
2018-09-05T00:52:08.694Z,97875.72
2018-09-05T00:52:40.284Z,97877.00
2018-09-05T00:53:11.872Z,97880.00
2018-09-05T00:53:43.463Z,97877.02
2018-09-05T00:54:15.056Z,97883.86
2018-09-05T00:54:46.684Z,97875.75
2018-09-05T00:55:18.286Z,97874.03
2018-09-05T00:55:49.881Z,97875.31
2018-09-05T00:56:21.526Z,97875.30
2018-09-05T00:56:53.106Z,97877.45
2018-09-05T00:57:24.706Z,97871.45
2018-09-05T00:57:56.296Z,97869.33
2018-09-05T00:58:27.872Z,97870.61
2018-09-05T00:58:59.471Z,97872.72
2018-09-05T00:59:31.074Z,97874.86
2018-09-05T01:00:02.665Z,97869.31
2018-09-05T01:00:34.256Z,97879.50
2018-09-05T01:01:05.909Z,97868.39
2018-09-05T01:01:37.491Z,97875.64
2018-09-05T01:02:09.089Z,97874.34
2018-09-05T01:02:40.676Z,97873.14
2018-09-05T01:03:12.269Z,97874.78
2018-09-05T01:03:43.856Z,97877.34
2018-09-05T01:04:15.464Z,97876.47
2018-09-05T01:04:47.063Z,97876.05
2018-09-05T01:05:18.648Z,97871.30
2018-09-05T01:05:50.246Z,97875.02
2018-09-05T01:06:21.922Z,97878.36
2018-09-05T01:06:53.512Z,97877.57
2018-09-05T01:07:25.098Z,97873.39
2018-09-05T01:07:56.716Z,97879.50
2018-09-05T01:08:28.304Z,97874.09
2018-09-05T01:08:59.892Z,97876.66
2018-09-05T01:09:31.480Z,97879.56
2018-09-05T01:10:03.077Z,97875.66
2018-09-05T01:10:34.662Z,97880.33
2018-09-05T01:11:06.253Z,97879.89
2018-09-05T01:11:37.849Z,97872.97
2018-09-05T01:12:09.440Z,97872.50
2018-09-05T01:12:41.042Z,97866.56
2018-09-05T01:13:12.636Z,97875.91
2018-09-05T01:13:44.235Z,97861.81
2018-09-05T01:14:15.810Z,97873.32
2018-09-05T01:14:47.386Z,97871.59
2018-09-05T01:15:19.038Z,97872.88
2018-09-05T01:15:50.645Z,97868.13
2018-09-05T01:16:22.240Z,97869.84
2018-09-05T01:16:53.886Z,97868.12
2018-09-05T01:17:25.466Z,97868.10
2018-09-05T01:17:57.075Z,97871.12
2018-09-05T01:18:28.718Z,97869.40
2018-09-05T01:19:00.318Z,97871.08
2018-09-05T01:19:31.912Z,97874.52
2018-09-05T01:20:03.506Z,97874.93
2018-09-05T01:20:35.110Z,97877.00
2018-09-05T01:21:06.700Z,97873.16
2018-09-05T01:21:38.331Z,97873.22
2018-09-05T01:22:09.934Z,97875.34
2018-09-05T01:22:41.537Z,97874.48
2018-09-05T01:23:13.131Z,97873.58
2018-09-05T01:23:44.774Z,97880.04
2018-09-05T01:24:16.376Z,97874.44
2018-09-05T01:24:47.953Z,97874.91
2018-09-05T01:25:19.544Z,97874.06
2018-09-05T01:25:51.163Z,97878.33
2018-09-05T01:26:22.765Z,97873.20
2018-09-05T01:26:54.357Z,97867.17
2018-09-05T01:27:25.944Z,97867.16
2018-09-05T01:27:57.577Z,97872.27
2018-09-05T01:28:29.185Z,97870.52
2018-09-05T01:29:00.782Z,97872.27
2018-09-05T01:29:32.376Z,97874.83
2018-09-05T01:30:04.018Z,97878.19
2018-09-05T01:30:35.613Z,97876.89
2018-09-05T01:31:07.204Z,97873.03
2018-09-05T01:31:38.806Z,97872.61
2018-09-05T01:32:10.396Z,97877.30
2018-09-05T01:32:41.984Z,97876.03
2018-09-05T01:33:13.587Z,97877.73
2018-09-05T01:33:45.195Z,97878.17
2018-09-05T01:34:16.783Z,97876.06
2018-09-05T01:34:48.406Z,97879.44
2018-09-05T01:35:20.009Z,97878.17
2018-09-05T01:35:51.601Z,97879.03
2018-09-05T01:36:23.182Z,97878.20
2018-09-05T01:36:54.772Z,97882.47
2018-09-05T01:37:26.346Z,97883.33
2018-09-05T01:37:57.932Z,97876.98
2018-09-05T01:38:29.524Z,97882.55
2018-09-05T01:39:01.107Z,97888.59
2018-09-05T01:39:32.709Z,97881.77
2018-09-05T01:40:04.348Z,97883.91
2018-09-05T01:40:35.937Z,97888.62
2018-09-05T01:41:07.549Z,97885.68
2018-09-05T01:41:39.155Z,97883.59
2018-09-05T01:42:10.734Z,97881.85
2018-09-05T01:42:42.314Z,97877.17
2018-09-05T01:43:13.919Z,97881.94
2018-09-05T01:43:45.512Z,97882.36
2018-09-05T01:44:17.118Z,97885.38
2018-09-05T01:44:48.742Z,97879.41
2018-09-05T01:45:20.381Z,97884.52
2018-09-05T01:45:51.971Z,97878.55
2018-09-05T01:46:23.560Z,97878.11
2018-09-05T01:46:55.148Z,97877.77
2018-09-05T01:47:26.732Z,97882.83
2018-09-05T01:47:58.312Z,97882.41
2018-09-05T01:48:29.890Z,97876.05
2018-09-05T01:49:01.490Z,97878.22
2018-09-05T01:49:33.072Z,97887.59
2018-09-05T01:50:04.714Z,97881.63
2018-09-05T01:50:36.324Z,97883.33
2018-09-05T01:51:07.922Z,97881.19
2018-09-05T01:51:39.526Z,97885.89
2018-09-05T01:52:11.134Z,97878.22
2018-09-05T01:52:42.742Z,97880.78
2018-09-05T01:53:14.332Z,97878.64
2018-09-05T01:53:45.910Z,97879.08
2018-09-05T01:54:17.496Z,97880.78
2018-09-05T01:54:49.127Z,97876.52
2018-09-05T01:55:20.727Z,97876.13
2018-09-05T01:55:52.325Z,97881.64
2018-09-05T01:56:23.920Z,97888.05
2018-09-05T01:56:55.512Z,97881.25
2018-09-05T01:57:27.091Z,97882.11
2018-09-05T01:57:58.714Z,97879.97
2018-09-05T01:58:30.303Z,97882.13
2018-09-05T01:59:01.893Z,97881.69
2018-09-05T01:59:33.538Z,97884.67
2018-09-05T02:00:05.124Z,97876.98
2018-09-05T02:00:36.730Z,97888.09
2018-09-05T02:01:08.305Z,97881.27
2018-09-05T02:01:39.952Z,97885.11
2018-09-05T02:02:11.545Z,97885.11
2018-09-05T02:02:43.151Z,97882.97
2018-09-05T02:03:14.731Z,97881.27
2018-09-05T02:03:46.335Z,97877.86
2018-09-05T02:04:17.938Z,97877.42
2018-09-05T02:04:49.527Z,97878.30
2018-09-05T02:05:21.134Z,97874.89
2018-09-05T02:05:52.740Z,97873.17
2018-09-05T02:06:24.349Z,97881.72
2018-09-05T02:06:55.986Z,97883.84
2018-09-05T02:07:27.590Z,97883.84
2018-09-05T02:07:59.198Z,97877.45
2018-09-05T02:08:30.831Z,97875.30
2018-09-05T02:09:02.414Z,97880.42
2018-09-05T02:09:34.003Z,97879.14
2018-09-05T02:10:05.587Z,97874.87
2018-09-05T02:10:37.189Z,97876.64
2018-09-05T02:11:08.780Z,97885.97
2018-09-05T02:11:40.372Z,97871.02
2018-09-05T02:12:11.978Z,97882.56
2018-09-05T02:12:43.559Z,97879.58
2018-09-05T02:13:15.134Z,97873.66
2018-09-05T02:13:46.720Z,97879.14
2018-09-05T02:14:18.311Z,97881.28
2018-09-05T02:14:49.918Z,97880.86
2018-09-05T02:15:21.512Z,97886.84
2018-09-05T02:15:53.117Z,97885.14
2018-09-05T02:16:24.760Z,97890.69
2018-09-05T02:16:56.347Z,97891.13
2018-09-05T02:17:27.936Z,97892.41
2018-09-05T02:17:59.586Z,97889.03
2018-09-05T02:18:31.194Z,97887.33
2018-09-05T02:19:02.798Z,97886.91
2018-09-05T02:19:34.388Z,97884.34
2018-09-05T02:20:06.124Z,97889.50
2018-09-05T02:20:37.947Z,97891.17
2018-09-05T02:21:09.536Z,97888.63
2018-09-05T02:21:41.128Z,97889.47
2018-09-05T02:22:12.714Z,97890.34
2018-09-05T02:22:44.290Z,97889.48
2018-09-05T02:23:15.924Z,97891.19
2018-09-05T02:23:47.515Z,97891.19
2018-09-05T02:24:19.121Z,97889.91
2018-09-05T02:24:50.726Z,97888.63
2018-09-05T02:25:22.326Z,97885.22
2018-09-05T02:25:53.930Z,97887.78
2018-09-05T02:26:25.546Z,97892.47
2018-09-05T02:26:57.149Z,97893.75
2018-09-05T02:27:28.760Z,97891.19
2018-09-05T02:28:00.368Z,97893.75
2018-09-05T02:28:32.008Z,97894.97
2018-09-05T02:29:03.601Z,97894.53
2018-09-05T02:29:35.196Z,97895.38
2018-09-05T02:30:06.798Z,97897.92
2018-09-05T02:30:38.392Z,97891.50
2018-09-05T02:31:09.979Z,97897.44
2018-09-05T02:31:41.575Z,97888.98
2018-09-05T02:32:13.178Z,97896.16
2018-09-05T02:32:44.786Z,97894.92
2018-09-05T02:33:16.377Z,97892.78
2018-09-05T02:33:48.022Z,97896.64
2018-09-05T02:34:19.616Z,97894.06
2018-09-05T02:34:51.194Z,97899.63
2018-09-05T02:35:22.800Z,97895.78
2018-09-05T02:35:54.392Z,97894.92
2018-09-05T02:36:25.984Z,97889.80
2018-09-05T02:36:57.586Z,97898.77
2018-09-05T02:37:29.960Z,97896.64
2018-09-05T02:38:01.553Z,97896.22
2018-09-05T02:38:33.142Z,97895.80
2018-09-05T02:39:04.774Z,97889.89
2018-09-05T02:39:36.377Z,97895.80
2018-09-05T02:40:07.971Z,97892.38
2018-09-05T02:40:39.589Z,97891.09
2018-09-05T02:41:11.175Z,97891.53
2018-09-05T02:41:42.778Z,97897.92
2018-09-05T02:42:14.368Z,97894.94
2018-09-05T02:42:45.981Z,97899.64
2018-09-05T02:43:17.558Z,97900.92
2018-09-05T02:43:49.157Z,97899.64
2018-09-05T02:44:20.775Z,97903.92
2018-09-05T02:44:52.382Z,97901.36
2018-09-05T02:45:23.966Z,97903.13
2018-09-05T02:45:55.566Z,97901.78
2018-09-05T02:46:27.168Z,97905.64
2018-09-05T02:46:58.764Z,97904.34
2018-09-05T02:47:30.370Z,97908.62
2018-09-05T02:48:01.977Z,97906.91
2018-09-05T02:48:33.569Z,97905.19
2018-09-05T02:49:05.218Z,97907.77
2018-09-05T02:49:36.808Z,97906.41
2018-09-05T02:50:08.396Z,97904.31
2018-09-05T02:50:39.988Z,97905.98
2018-09-05T02:51:11.566Z,97905.13
2018-09-05T02:51:43.167Z,97905.54
2018-09-05T02:52:14.761Z,97907.23
2018-09-05T02:52:46.361Z,97899.97
2018-09-05T02:53:17.966Z,97905.09
2018-09-05T02:53:49.560Z,97899.56
2018-09-05T02:54:21.368Z,97903.42
2018-09-05T02:54:52.959Z,97899.58
2018-09-05T02:55:24.534Z,97903.42
2018-09-05T02:55:56.134Z,97902.14
2018-09-05T02:56:27.743Z,97901.33
2018-09-05T02:56:59.332Z,97900.06
2018-09-05T02:57:30.935Z,97900.06
2018-09-05T02:58:02.524Z,97899.64
2018-09-05T02:58:34.112Z,97893.67
2018-09-05T02:59:05.719Z,97894.95
2018-09-05T02:59:37.360Z,97894.53
2018-09-05T03:00:08.966Z,97896.72
2018-09-05T03:00:40.570Z,97897.58
2018-09-05T03:01:12.161Z,97894.16
2018-09-05T03:01:43.748Z,97897.58
2018-09-05T03:02:15.340Z,97898.44
2018-09-05T03:02:46.979Z,97897.16
2018-09-05T03:03:18.578Z,97895.88
2018-09-05T03:03:50.168Z,97894.59
2018-09-05T03:04:21.755Z,97896.31
2018-09-05T03:04:53.408Z,97896.75
2018-09-05T03:05:24.982Z,97898.88
2018-09-05T03:05:56.572Z,97890.83
2018-09-05T03:06:28.176Z,97891.20
2018-09-05T03:06:59.758Z,97891.63
2018-09-05T03:07:31.347Z,97892.06
2018-09-05T03:08:02.926Z,97892.95
2018-09-05T03:08:34.528Z,97891.20
2018-09-05T03:09:06.134Z,97894.23
2018-09-05T03:09:37.729Z,97888.22
2018-09-05T03:10:09.366Z,97891.27
2018-09-05T03:10:40.955Z,97886.94
2018-09-05T03:11:12.548Z,97891.25
2018-09-05T03:11:44.135Z,97895.53
2018-09-05T03:12:15.711Z,97892.11
2018-09-05T03:12:47.296Z,97886.98
2018-09-05T03:13:18.885Z,97894.67
2018-09-05T03:13:50.481Z,97892.13
2018-09-05T03:14:22.066Z,97895.95
2018-09-05T03:14:53.714Z,97888.27
2018-09-05T03:15:25.349Z,97888.69
2018-09-05T03:15:56.953Z,97897.67
2018-09-05T03:16:28.540Z,97888.70
2018-09-05T03:17:00.143Z,97893.41
2018-09-05T03:17:31.722Z,97895.53
2018-09-05T03:18:03.312Z,97897.66
2018-09-05T03:18:34.900Z,97898.52
2018-09-05T03:19:06.510Z,97893.41
2018-09-05T03:19:38.114Z,97895.95
2018-09-05T03:20:09.748Z,97894.25
2018-09-05T03:20:41.456Z,97892.97
2018-09-05T03:21:13.059Z,97892.55
2018-09-05T03:21:44.652Z,97892.97
2018-09-05T03:22:16.237Z,97895.11
2018-09-05T03:22:47.824Z,97895.11
2018-09-05T03:23:19.417Z,97897.25
2018-09-05T03:23:51.009Z,97895.13
2018-09-05T03:24:22.608Z,97890.42
2018-09-05T03:24:54.199Z,97893.39
2018-09-05T03:25:25.818Z,97900.66
2018-09-05T03:25:57.404Z,97893.41
2018-09-05T03:26:29.001Z,97887.92
2018-09-05T03:27:00.588Z,97893.84
2018-09-05T03:27:32.198Z,97888.73
2018-09-05T03:28:03.805Z,97896.83
2018-09-05T03:28:35.413Z,97898.11
2018-09-05T03:29:07.014Z,97895.13
2018-09-05T03:29:38.611Z,97897.25
2018-09-05T03:30:10.204Z,97898.11
2018-09-05T03:30:41.806Z,97898.11
2018-09-05T03:31:13.396Z,97897.27
2018-09-05T03:31:44.999Z,97899.39
2018-09-05T03:32:16.638Z,97899.41
2018-09-05T03:32:48.287Z,97897.69
2018-09-05T03:33:19.806Z,97898.11
2018-09-05T03:33:51.397Z,97895.55
2018-09-05T03:34:23.005Z,97902.38
2018-09-05T03:34:54.751Z,97903.23
2018-09-05T03:35:26.394Z,97897.25
2018-09-05T03:35:58.045Z,97904.08
2018-09-05T03:36:29.675Z,97896.39
2018-09-05T03:37:01.287Z,97907.50
2018-09-05T03:37:32.922Z,97900.67
2018-09-05T03:38:04.511Z,97905.78
2018-09-05T03:38:36.092Z,97903.66
2018-09-05T03:39:07.675Z,97901.52
2018-09-05T03:39:39.282Z,97901.94
2018-09-05T03:40:10.876Z,97905.78
2018-09-05T03:40:42.482Z,97908.78
2018-09-05T03:41:14.130Z,97900.23
2018-09-05T03:41:45.727Z,97903.23
2018-09-05T03:42:17.329Z,97906.23
2018-09-05T03:42:48.920Z,97901.16
2018-09-05T03:43:20.498Z,97914.36
2018-09-05T03:43:52.088Z,97910.13
2018-09-05T03:44:23.665Z,97904.16
2018-09-05T03:44:55.257Z,97905.89
2018-09-05T03:45:26.862Z,97906.72
2018-09-05T03:45:58.500Z,97905.87
2018-09-05T03:46:30.079Z,97905.89
2018-09-05T03:47:01.678Z,97905.91
2018-09-05T03:47:33.282Z,97911.42
2018-09-05T03:48:04.880Z,97905.02
2018-09-05T03:48:36.497Z,97908.00
2018-09-05T03:49:08.143Z,97911.42
2018-09-05T03:49:39.765Z,97908.02
2018-09-05T03:50:11.355Z,97909.72
2018-09-05T03:50:42.964Z,97911.08
2018-09-05T03:51:14.556Z,97911.44
2018-09-05T03:51:46.159Z,97913.59
2018-09-05T03:52:17.779Z,97914.02
2018-09-05T03:52:49.396Z,97907.17
2018-09-05T03:53:20.998Z,97914.86
2018-09-05T03:53:52.598Z,97916.55
2018-09-05T03:54:24.188Z,97912.72
2018-09-05T03:54:55.766Z,97911.86
2018-09-05T03:55:27.356Z,97914.00
2018-09-05T03:55:58.944Z,97919.55
2018-09-05T03:56:30.577Z,97919.12
2018-09-05T03:57:02.181Z,97914.84
2018-09-05T03:57:33.768Z,97917.41
2018-09-05T03:58:05.395Z,97914.86
2018-09-05T03:58:36.988Z,97916.57
2018-09-05T03:59:08.595Z,97917.85
2018-09-05T03:59:40.181Z,97923.40
2018-09-05T04:00:11.772Z,97915.29
2018-09-05T04:00:43.374Z,97915.71
2018-09-05T04:01:14.979Z,97919.98
2018-09-05T04:01:46.585Z,97914.43
2018-09-05T04:02:18.165Z,97911.86
2018-09-05T04:02:49.766Z,97911.88
2018-09-05T04:03:21.408Z,97918.27
2018-09-05T04:03:52.999Z,97919.96
2018-09-05T04:04:24.592Z,97915.27
2018-09-05T04:04:56.207Z,97913.92
2018-09-05T04:05:27.814Z,97900.52
2018-09-05T04:05:59.408Z,97913.91
2018-09-05T04:06:31.008Z,97919.85
2018-09-05T04:07:02.600Z,97916.02
2018-09-05T04:07:34.206Z,97918.53
2018-09-05T04:08:05.805Z,97920.23
2018-09-05T04:08:37.441Z,97916.81
2018-09-05T04:09:09.015Z,97916.82
2018-09-05T04:09:40.619Z,97920.66
2018-09-05T04:10:12.226Z,97921.53
2018-09-05T04:10:43.812Z,97916.45
2018-09-05T04:11:15.414Z,97921.99
2018-09-05T04:11:47.010Z,97924.56
2018-09-05T04:12:18.673Z,97922.85
2018-09-05T04:12:50.232Z,97923.70
2018-09-05T04:13:21.835Z,97924.93
2018-09-05T04:13:53.508Z,97926.20
2018-09-05T04:14:25.098Z,97923.23
2018-09-05T04:14:56.703Z,97927.93
2018-09-05T04:15:28.296Z,97927.05
2018-09-05T04:15:59.884Z,97922.71
2018-09-05T04:16:31.494Z,97924.84
2018-09-05T04:17:03.084Z,97928.24
2018-09-05T04:17:34.676Z,97923.96
2018-09-05T04:18:06.265Z,97926.52
2018-09-05T04:18:37.874Z,97922.69
2018-09-05T04:19:09.534Z,97929.09
2018-09-05T04:19:41.128Z,97927.37
2018-09-05T04:20:12.738Z,97930.74
2018-09-05T04:20:44.332Z,97929.04
2018-09-05T04:21:15.934Z,97929.46
2018-09-05T04:21:47.528Z,97935.01
2018-09-05T04:22:19.116Z,97928.59
2018-09-05T04:22:50.719Z,97931.55
2018-09-05T04:23:22.340Z,97927.30
2018-09-05T04:23:53.944Z,97924.30
2018-09-05T04:24:25.584Z,97933.70
2018-09-05T04:24:57.185Z,97930.70
2018-09-05T04:25:28.776Z,97930.27
2018-09-05T04:26:00.378Z,97933.65
2018-09-05T04:26:31.978Z,97931.55
2018-09-05T04:27:03.574Z,97933.65
2018-09-05T04:27:35.168Z,97931.51
2018-09-05T04:28:06.771Z,97932.41
2018-09-05T04:28:38.364Z,97928.16
2018-09-05T04:29:09.963Z,97930.32
2018-09-05T04:29:41.623Z,97930.37
2018-09-05T04:30:13.221Z,97927.84
2018-09-05T04:30:44.798Z,97926.60
2018-09-05T04:31:16.396Z,97927.91
2018-09-05T04:31:48.001Z,97925.79
2018-09-05T04:32:19.592Z,97931.77
2018-09-05T04:32:51.194Z,97928.40
2018-09-05T04:33:22.784Z,97925.01
2018-09-05T04:33:54.381Z,97936.51
2018-09-05T04:34:25.979Z,97928.82
2018-09-05T04:34:57.558Z,97930.54
2018-09-05T04:35:29.163Z,97933.96
2018-09-05T04:36:00.774Z,97936.94
2018-09-05T04:36:32.369Z,97935.26
2018-09-05T04:37:03.978Z,97936.10
2018-09-05T04:37:35.583Z,97930.55
2018-09-05T04:38:07.171Z,97934.83
2018-09-05T04:38:38.774Z,97933.98
2018-09-05T04:39:10.369Z,97933.53
2018-09-05T04:39:41.956Z,97930.54
2018-09-05T04:40:13.604Z,97937.74
2018-09-05T04:40:45.206Z,97934.31
2018-09-05T04:41:16.810Z,97932.17
2018-09-05T04:41:48.390Z,97929.62
2018-09-05T04:42:19.976Z,97932.19
2018-09-05T04:42:51.573Z,97933.88
2018-09-05T04:43:23.154Z,97939.02
2018-09-05T04:43:54.798Z,97939.51
2018-09-05T04:44:26.393Z,97940.36
2018-09-05T04:44:57.995Z,97940.80
2018-09-05T04:45:29.652Z,97936.12
2018-09-05T04:46:01.244Z,97938.73
2018-09-05T04:46:32.822Z,97939.97
2018-09-05T04:47:04.420Z,97938.30
2018-09-05T04:47:36.022Z,97943.00
2018-09-05T04:48:07.610Z,97946.00
2018-09-05T04:48:39.204Z,97942.16
2018-09-05T04:49:10.854Z,97944.30
2018-09-05T04:49:42.462Z,97947.70
2018-09-05T04:50:14.073Z,97946.38
2018-09-05T04:50:45.678Z,97944.70
2018-09-05T04:51:17.326Z,97943.37
2018-09-05T04:51:48.916Z,97947.19
2018-09-05T04:52:20.494Z,97946.77
2018-09-05T04:52:52.095Z,97945.92
2018-09-05T04:53:23.688Z,97948.91
2018-09-05T04:53:55.280Z,97949.75
2018-09-05T04:54:26.886Z,97945.09
2018-09-05T04:54:58.476Z,97948.48
2018-09-05T04:55:30.078Z,97952.33
2018-09-05T04:56:01.708Z,97945.08
2018-09-05T04:56:33.327Z,97946.80
2018-09-05T04:57:04.918Z,97947.22
2018-09-05T04:57:36.526Z,97948.92
2018-09-05T04:58:08.116Z,97948.50
2018-09-05T04:58:39.691Z,97957.05
2018-09-05T04:59:11.274Z,97948.94
2018-09-05T04:59:42.868Z,97952.78
2018-09-05T05:00:14.461Z,97950.27
2018-09-05T05:00:46.044Z,97947.30
2018-09-05T05:01:17.650Z,97953.70
2018-09-05T05:01:49.298Z,97954.12
2018-09-05T05:02:20.889Z,97950.73
2018-09-05T05:02:52.482Z,97954.98
2018-09-05T05:03:24.089Z,97959.27
2018-09-05T05:03:55.694Z,97954.56
2018-09-05T05:04:27.333Z,97957.98
2018-09-05T05:04:58.914Z,97957.55
2018-09-05T05:05:30.513Z,97961.31
2018-09-05T05:06:02.680Z,97958.75
2018-09-05T05:06:33.730Z,97957.89
2018-09-05T05:07:05.341Z,97960.45
2018-09-05T05:07:36.940Z,97956.17
2018-09-05T05:08:08.532Z,97963.84
2018-09-05T05:08:40.124Z,97957.89
2018-09-05T05:09:11.727Z,97962.12
2018-09-05T05:09:43.364Z,97959.56
2018-09-05T05:10:14.942Z,97959.95
2018-09-05T05:10:46.537Z,97965.08
2018-09-05T05:11:18.116Z,97967.20
2018-09-05T05:11:49.703Z,97962.56
2018-09-05T05:12:21.306Z,97963.80
2018-09-05T05:12:52.900Z,97964.70
2018-09-05T05:13:24.492Z,97963.86
2018-09-05T05:13:56.133Z,97961.73
2018-09-05T05:14:27.722Z,97967.72
2018-09-05T05:14:59.366Z,97964.31
2018-09-05T05:15:31.004Z,97962.22
2018-09-05T05:16:02.605Z,97960.09
2018-09-05T05:16:34.211Z,97963.52
2018-09-05T05:17:05.802Z,97964.80
2018-09-05T05:17:37.410Z,97963.09
2018-09-05T05:18:09.019Z,97966.09
2018-09-05T05:18:40.624Z,97968.22
2018-09-05T05:19:12.225Z,97969.08
2018-09-05T05:19:43.816Z,97965.67
2018-09-05T05:20:15.431Z,97960.55
2018-09-05T05:20:47.051Z,97965.67
2018-09-05T05:21:18.626Z,97965.73
2018-09-05T05:21:50.203Z,97964.87
2018-09-05T05:22:21.846Z,97965.30
2018-09-05T05:22:53.454Z,97961.89
2018-09-05T05:23:25.048Z,97972.13
2018-09-05T05:23:56.644Z,97964.89
2018-09-05T05:24:28.246Z,97967.02
2018-09-05T05:24:59.826Z,97964.89
2018-09-05T05:25:31.416Z,97964.89
2018-09-05T05:26:03.023Z,97964.89
2018-09-05T05:26:34.629Z,97968.71
2018-09-05T05:27:06.214Z,97967.45
2018-09-05T05:27:37.812Z,97972.13
2018-09-05T05:28:09.400Z,97972.14
2018-09-05T05:28:40.996Z,97969.21
2018-09-05T05:29:12.579Z,97969.16
2018-09-05T05:29:44.199Z,97970.93
2018-09-05T05:30:15.778Z,97965.80
2018-09-05T05:30:47.372Z,97975.63
2018-09-05T05:31:18.963Z,97967.50
2018-09-05T05:31:50.570Z,97961.97
2018-09-05T05:32:22.236Z,97965.13
2018-09-05T05:32:53.880Z,97970.02
2018-09-05T05:33:25.394Z,97973.00
2018-09-05T05:33:56.996Z,97973.86
2018-09-05T05:34:28.584Z,97973.86
2018-09-05T05:35:00.233Z,97970.86
2018-09-05T05:35:31.838Z,97967.88
2018-09-05T05:36:03.428Z,97970.86
2018-09-05T05:36:35.030Z,97975.14
2018-09-05T05:37:06.638Z,97973.86
2018-09-05T05:37:38.232Z,97973.44
2018-09-05T05:38:09.807Z,97974.72
2018-09-05T05:38:41.414Z,97972.16
2018-09-05T05:39:13.008Z,97973.92
2018-09-05T05:39:44.615Z,97973.00
2018-09-05T05:40:16.273Z,97965.32
2018-09-05T05:40:47.813Z,97977.27
2018-09-05T05:41:19.408Z,97978.55
2018-09-05T05:41:51.060Z,97974.28
2018-09-05T05:42:22.648Z,97976.06
2018-09-05T05:42:54.254Z,97973.44
2018-09-05T05:43:25.835Z,97973.86
2018-09-05T05:43:57.410Z,97970.86
2018-09-05T05:44:29.015Z,97970.86
2018-09-05T05:45:00.614Z,97974.67
2018-09-05T05:45:32.209Z,97970.80
2018-09-05T05:46:03.813Z,97972.06
2018-09-05T05:46:35.419Z,97969.92
2018-09-05T05:47:07.064Z,97971.20
2018-09-05T05:47:38.652Z,97970.84
2018-09-05T05:48:10.239Z,97970.72
2018-09-05T05:48:41.832Z,97974.98
2018-09-05T05:49:13.438Z,97977.12
2018-09-05T05:49:45.046Z,97969.05
2018-09-05T05:50:16.650Z,97974.55
2018-09-05T05:50:48.244Z,97970.72
2018-09-05T05:51:19.834Z,97974.55
2018-09-05T05:51:51.487Z,97975.47
2018-09-05T05:52:23.083Z,97969.05
2018-09-05T05:52:54.672Z,97975.84
2018-09-05T05:53:26.299Z,97972.84
2018-09-05T05:53:57.902Z,97971.19
2018-09-05T05:54:29.487Z,97971.61
2018-09-05T05:55:01.120Z,97964.81
2018-09-05T05:55:32.716Z,97973.33
2018-09-05T05:56:04.301Z,97972.89
2018-09-05T05:56:35.888Z,97968.58
2018-09-05T05:57:07.514Z,97969.44
2018-09-05T05:57:39.104Z,97972.89
2018-09-05T05:58:10.692Z,97972.06
2018-09-05T05:58:42.328Z,97974.62
2018-09-05T05:59:13.930Z,97968.23
2018-09-05T05:59:45.530Z,97970.35
2018-09-05T06:00:17.134Z,97972.06
2018-09-05T06:00:48.807Z,97976.34
2018-09-05T06:01:20.373Z,97974.20
2018-09-05T06:01:51.960Z,97972.49
2018-09-05T06:02:23.553Z,97977.62
2018-09-05T06:02:55.135Z,97974.67
2018-09-05T06:03:26.725Z,97978.91
2018-09-05T06:03:58.360Z,97975.53
2018-09-05T06:04:29.949Z,97972.98
2018-09-05T06:05:01.553Z,97978.91
2018-09-05T06:05:34.060Z,97974.67
2018-09-05T06:06:05.747Z,97981.03
2018-09-05T06:06:37.313Z,97978.90
2018-09-05T06:07:08.918Z,97982.74
2018-09-05T06:07:40.520Z,97980.60
2018-09-05T06:08:12.114Z,97981.02
2018-09-05T06:08:43.708Z,97982.71
2018-09-05T06:09:15.310Z,97977.53
2018-09-05T06:09:46.909Z,97983.92
2018-09-05T06:10:18.508Z,97980.06
2018-09-05T06:10:50.100Z,97977.50
2018-09-05T06:11:21.758Z,97983.41